createdAt,value
2023-05-20T00:03:46.089Z,100389.44
2023-05-20T00:08:48.083Z,100395.31
2023-05-20T00:13:50.003Z,100391.06
2023-05-20T00:18:52.098Z,100391.16
2023-05-20T00:23:54.080Z,100385.50
2023-05-20T00:28:56.100Z,100388.91
2023-05-20T00:33:58.139Z,100387.09
2023-05-20T00:39:00.102Z,100378.97
2023-05-20T00:44:02.046Z,100386.94
2023-05-20T00:49:04.220Z,100397.56
2023-05-20T00:54:06.298Z,100391.75
2023-05-20T00:59:08.273Z,100390.13
2023-05-20T01:04:10.237Z,100388.13
2023-05-20T01:09:13.352Z,100390.91
2023-05-20T01:14:15.286Z,100389.03
2023-05-20T01:19:35.848Z,100390.06
2023-05-20T01:24:37.916Z,100390.91
2023-05-20T01:29:40.528Z,100386.44
2023-05-20T01:34:42.583Z,100393.53
2023-05-20T01:39:44.569Z,100397.19
2023-05-20T01:44:46.451Z,100395.31
2023-05-20T01:49:48.447Z,100391.06
2023-05-20T01:54:50.404Z,100395.34
2023-05-20T01:59:52.429Z,100391.94
2023-05-20T02:04:54.526Z,100391.09
2023-05-20T02:09:56.513Z,100393.72
2023-05-20T02:14:58.538Z,100396.34
2023-05-20T02:20:00.672Z,100392.88
2023-05-20T02:25:02.994Z,100397.25
2023-05-20T02:30:06.977Z,100395.56
2023-05-20T02:35:09.390Z,100400.44
2023-05-20T02:40:11.569Z,100398.56
2023-05-20T02:45:13.669Z,100401.22
2023-05-20T02:50:15.733Z,100400.34
2023-05-20T02:55:17.778Z,100399.53
2023-05-20T03:00:19.711Z,100398.50
2023-05-20T03:05:21.723Z,100394.78
2023-05-20T03:10:23.689Z,100387.00
2023-05-20T03:15:25.684Z,100402.66
2023-05-20T03:20:27.618Z,100405.41
2023-05-20T03:25:31.170Z,100400.03
2023-05-20T03:30:33.197Z,100406.69
2023-05-20T03:35:35.413Z,100405.94
2023-05-20T03:40:37.391Z,100409.72
2023-05-20T03:45:39.338Z,100406.38
2023-05-20T03:50:41.302Z,100394.66
2023-05-20T03:55:43.269Z,100402.41
2023-05-20T04:00:45.219Z,100408.31
2023-05-20T04:05:47.194Z,100402.28
2023-05-20T04:10:49.175Z,100408.72
2023-05-20T04:15:52.353Z,100402.22
2023-05-20T04:20:57.531Z,100408.31
2023-05-20T04:25:59.530Z,100402.31
2023-05-20T04:31:01.980Z,100403.53
2023-05-20T04:36:04.933Z,100400.44
2023-05-20T04:41:07.064Z,100402.50
2023-05-20T04:46:09.036Z,100409.59
2023-05-20T04:51:11.386Z,100401.50
2023-05-20T04:56:13.326Z,100402.69
2023-05-20T05:01:15.348Z,100405.88
2023-05-20T05:06:17.574Z,100401.28
2023-05-20T05:11:19.625Z,100405.00
2023-05-20T05:16:21.716Z,100399.09
2023-05-20T05:21:23.747Z,100393.34
2023-05-20T05:26:26.239Z,100397.19
2023-05-20T05:31:28.320Z,100391.66
2023-05-20T05:36:33.680Z,100387.13
2023-05-20T05:41:35.750Z,100386.59
2023-05-20T05:46:37.859Z,100387.25
2023-05-20T05:51:39.841Z,100390.28
2023-05-20T05:56:41.931Z,100394.09
2023-05-20T06:01:43.953Z,100388.44
2023-05-20T06:06:46.025Z,100372.88
2023-05-20T06:11:47.895Z,100376.06
2023-05-20T06:16:49.771Z,100376.00
2023-05-20T06:21:51.748Z,100373.72
2023-05-20T06:26:53.757Z,100368.66
2023-05-20T06:31:55.719Z,100366.38
2023-05-20T06:36:57.732Z,100363.34
2023-05-20T06:41:59.407Z,100366.28
2023-05-20T06:47:01.348Z,100365.75
2023-05-20T06:52:03.112Z,100362.66
2023-05-20T06:57:05.326Z,100359.97
2023-05-20T07:02:07.505Z,100359.84
2023-05-20T07:07:09.538Z,100341.03
2023-05-20T07:12:11.551Z,100343.25
2023-05-20T07:17:13.469Z,100362.69
2023-05-20T07:22:15.288Z,100358.69
2023-05-20T07:27:17.211Z,100346.63
2023-05-20T07:32:19.156Z,100364.53
2023-05-20T07:37:21.082Z,100341.31
2023-05-20T07:42:23.041Z,100350.03
2023-05-20T07:47:25.141Z,100363.00
2023-05-20T07:52:27.134Z,100365.28
2023-05-20T07:57:29.033Z,100367.31
2023-05-20T08:02:30.989Z,100355.16
2023-05-20T08:07:33.051Z,100357.75
2023-05-20T08:12:34.727Z,100361.28
2023-05-20T08:17:36.526Z,100347.13
2023-05-20T08:22:39.011Z,100354.22
2023-05-20T08:27:40.910Z,100357.59
2023-05-20T08:32:42.834Z,100364.84
2023-05-20T08:37:44.620Z,100350.84
2023-05-20T08:42:49.691Z,100368.75
2023-05-20T08:47:51.610Z,100366.59
2023-05-20T08:52:53.775Z,100355.13
2023-05-20T08:57:55.918Z,100360.25
2023-05-20T09:03:01.015Z,100368.03
2023-05-20T09:08:12.509Z,100368.34
2023-05-20T09:13:14.527Z,100369.53
2023-05-20T09:18:16.407Z,100367.19
2023-05-20T09:23:19.397Z,100361.41
2023-05-20T09:28:23.193Z,100374.16
2023-05-20T09:33:28.219Z,100365.56
2023-05-20T09:38:31.233Z,100355.22
2023-05-20T09:43:33.241Z,100374.97
2023-05-20T09:48:38.173Z,100370.75
2023-05-20T09:53:40.277Z,100384.19
2023-05-20T09:58:42.988Z,100390.00
2023-05-20T10:03:45.022Z,100380.75
2023-05-20T10:09:14.813Z,100372.25
2023-05-20T10:14:26.755Z,100376.38
2023-05-20T10:19:35.099Z,100390.88
2023-05-20T10:24:41.298Z,100388.81
2023-05-20T10:34:53.938Z,100393.50
2023-05-20T10:40:11.731Z,100396.00
2023-05-20T10:45:25.324Z,100391.88
2023-05-20T10:50:37.055Z,100400.56
2023-05-20T10:55:39.720Z,100387.06
2023-05-20T11:00:41.904Z,100392.13
2023-05-20T11:05:44.848Z,100395.66
2023-05-20T11:10:46.700Z,100401.69
2023-05-20T11:15:49.398Z,100413.47
2023-05-20T11:20:51.368Z,100432.13
2023-05-20T11:25:53.525Z,100415.31
2023-05-20T11:30:55.578Z,100419.66
2023-05-20T11:35:57.395Z,100417.16
2023-05-20T11:40:59.584Z,100415.91
2023-05-20T11:46:01.400Z,100407.03
2023-05-20T11:51:03.300Z,100405.66
2023-05-20T11:56:05.333Z,100405.88
2023-05-20T12:01:21.125Z,100398.53
2023-05-20T12:06:24.001Z,100394.34
2023-05-20T12:11:25.915Z,100395.28
2023-05-20T12:16:27.938Z,100394.28
2023-05-20T12:21:29.995Z,100402.38
2023-05-20T12:26:31.880Z,100394.94
2023-05-20T12:31:35.162Z,100395.44
2023-05-20T12:36:37.195Z,100386.69
2023-05-20T12:41:39.112Z,100398.50
2023-05-20T12:46:41.171Z,100391.63
2023-05-20T12:51:43.132Z,100393.78
2023-05-20T12:56:45.169Z,100388.53
2023-05-20T13:01:47.161Z,100392.59
2023-05-20T13:06:49.130Z,100392.66
2023-05-20T13:11:51.077Z,100389.78
2023-05-20T13:16:52.932Z,100382.44
2023-05-20T13:21:54.867Z,100383.63
2023-05-20T13:26:56.784Z,100394.00
2023-05-20T13:32:00.962Z,100387.88
2023-05-20T13:37:03.805Z,100386.88
2023-05-20T13:42:05.994Z,100384.94
2023-05-20T13:47:07.871Z,100380.97
2023-05-20T13:52:09.823Z,100378.69
2023-05-20T13:57:11.947Z,100376.84
2023-05-20T14:02:13.922Z,100383.19
2023-05-20T14:07:16.061Z,100381.50
2023-05-20T14:12:17.994Z,100375.59
2023-05-20T14:17:19.954Z,100384.63
2023-05-20T14:22:21.956Z,100387.03
2023-05-20T14:27:23.944Z,100378.56
2023-05-20T14:32:25.964Z,100371.97
2023-05-20T14:37:27.984Z,100373.69
2023-05-20T14:42:29.941Z,100376.91
2023-05-20T14:47:31.865Z,100372.00
2023-05-20T14:52:33.875Z,100365.41
2023-05-20T14:57:35.826Z,100362.16
2023-05-20T15:02:37.925Z,100357.13
2023-05-20T15:07:39.790Z,100351.38
2023-05-20T15:12:41.514Z,100353.16
2023-05-20T15:17:43.552Z,100343.78
2023-05-20T15:22:45.524Z,100341.28
2023-05-20T15:27:47.387Z,100348.19
2023-05-20T15:32:49.348Z,100342.00
2023-05-20T15:37:51.307Z,100344.88
2023-05-20T15:42:53.252Z,100344.13
2023-05-20T15:47:55.373Z,100346.88
2023-05-20T15:52:57.399Z,100340.47
2023-05-20T15:57:59.479Z,100341.06
2023-05-20T16:03:01.435Z,100352.59
2023-05-20T16:08:03.341Z,100335.38
2023-05-20T16:13:05.255Z,100342.88
2023-05-20T16:18:07.235Z,100331.50
2023-05-20T16:23:09.152Z,100335.59
2023-05-20T16:28:11.258Z,100336.16
2023-05-20T16:33:13.388Z,100346.31
2023-05-20T16:38:15.361Z,100341.53
2023-05-20T16:43:17.263Z,100355.22
2023-05-20T16:48:19.244Z,100358.22
2023-05-20T16:53:21.181Z,100363.44
2023-05-20T16:58:23.171Z,100367.38
2023-05-20T17:03:25.200Z,100367.91
2023-05-20T17:08:27.236Z,100373.81
2023-05-20T17:13:29.224Z,100376.09
2023-05-20T17:18:31.206Z,100370.38
2023-05-20T17:23:33.083Z,100375.06
2023-05-20T17:28:34.998Z,100380.47
2023-05-20T17:33:37.100Z,100385.50
2023-05-20T17:38:39.215Z,100385.78
2023-05-20T17:43:41.139Z,100384.50
2023-05-20T17:48:42.978Z,100386.59
2023-05-20T17:53:44.916Z,100380.34
2023-05-20T17:58:47.001Z,100377.81
2023-05-20T18:03:49.254Z,100366.38
2023-05-20T18:08:51.081Z,100366.84
2023-05-20T18:13:52.875Z,100354.50
2023-05-20T18:18:55.329Z,100344.16
2023-05-20T18:23:57.194Z,100344.25
2023-05-20T18:28:59.048Z,100342.59
2023-05-20T18:34:01.061Z,100343.44
2023-05-20T18:39:03.050Z,100337.41
2023-05-20T18:44:05.784Z,100332.25
2023-05-20T18:49:08.100Z,100326.84
2023-05-20T18:54:10.029Z,100321.41
2023-05-20T18:59:11.859Z,100316.91
2023-05-20T19:04:13.732Z,100318.69
2023-05-20T19:09:15.637Z,100309.09
2023-05-20T19:14:17.508Z,100295.94
2023-05-20T19:19:19.543Z,100300.31
2023-05-20T19:24:21.595Z,100289.03
2023-05-20T19:29:23.631Z,100283.84
2023-05-20T19:34:25.625Z,100279.53
2023-05-20T19:39:27.702Z,100278.03
2023-05-20T19:44:29.649Z,100275.56
2023-05-20T19:49:31.652Z,100267.22
2023-05-20T19:54:33.815Z,100263.72
2023-05-20T19:59:35.810Z,100254.94
2023-05-20T20:04:37.838Z,100246.19
2023-05-20T20:09:39.744Z,100245.47
2023-05-20T20:14:41.681Z,100241.44
2023-05-20T20:19:44.431Z,100237.75
2023-05-20T20:24:46.290Z,100232.56
2023-05-20T20:29:48.244Z,100236.84
2023-05-20T20:34:50.252Z,100222.84
2023-05-20T20:39:52.224Z,100217.41
2023-05-20T20:44:54.254Z,100214.03
2023-05-20T20:49:56.491Z,100204.38
2023-05-20T20:54:58.484Z,100195.56
2023-05-20T21:00:00.771Z,100191.19
2023-05-20T21:05:02.721Z,100185.91
2023-05-20T21:10:07.084Z,100191.22
2023-05-20T21:15:09.919Z,100187.97
2023-05-20T21:20:12.236Z,100182.78
2023-05-20T21:25:14.112Z,100174.88
2023-05-20T21:30:16.080Z,100170.66
2023-05-20T21:35:17.983Z,100160.41
2023-05-20T21:40:20.003Z,100163.16
2023-05-20T21:45:23.141Z,100158.97
2023-05-20T21:50:25.033Z,100157.19
2023-05-20T21:55:27.014Z,100156.28
2023-05-20T22:00:28.998Z,100151.91
2023-05-20T22:05:30.954Z,100149.34
2023-05-20T22:10:32.819Z,100139.66
2023-05-20T22:15:34.884Z,100141.47
2023-05-20T22:20:36.815Z,100133.72
2023-05-20T22:25:38.674Z,100127.69
2023-05-20T22:30:40.572Z,100118.00
2023-05-20T22:35:42.519Z,100112.72
2023-05-20T22:40:44.426Z,100106.44
2023-05-20T22:45:46.306Z,100092.28
2023-05-20T22:50:48.480Z,100085.22
2023-05-20T22:55:50.453Z,100087.63
2023-05-20T23:00:52.350Z,100077.97
2023-05-20T23:05:54.210Z,100076.22
2023-05-20T23:10:56.068Z,100065.63
2023-05-20T23:15:57.955Z,100071.69
2023-05-20T23:20:59.885Z,100075.19
2023-05-20T23:26:01.849Z,100073.41
2023-05-20T23:31:03.869Z,100072.47
2023-05-20T23:36:06.169Z,100054.34
2023-05-20T23:41:08.103Z,100063.06
2023-05-20T23:46:10.125Z,100054.44
2023-05-20T23:51:12.071Z,100044.19
2023-05-20T23:56:13.976Z,100039.56
